sensor_id;sensor_type;location;lat;lon;timestamp;P1;durP1;ratioP1;P2;durP2;ratioP2
43682;SDS011;29285;52.128;21.060;2022-10-13T00:02:27;16.25;;;10.65;;
43682;SDS011;29285;52.128;21.060;2022-10-13T00:07:28;17.27;;;9.25;;
43682;SDS011;29285;52.128;21.060;2022-10-13T00:12:30;15.23;;;9.28;;
43682;SDS011;29285;52.128;21.060;2022-10-13T00:17:37;16.15;;;10.43;;
43682;SDS011;29285;52.128;21.060;2022-10-13T00:22:38;22.70;;;11.20;;
43682;SDS011;29285;52.128;21.060;2022-10-13T00:27:40;23.05;;;11.60;;
43682;SDS011;29285;52.128;21.060;2022-10-13T00:32:41;18.32;;;10.82;;
43682;SDS011;29285;52.128;21.060;2022-10-13T00:37:43;20.90;;;10.32;;
43682;SDS011;29285;52.128;21.060;2022-10-13T00:42:44;20.72;;;11.73;;
43682;SDS011;29285;52.128;21.060;2022-10-13T00:47:48;16.82;;;10.95;;
43682;SDS011;29285;52.128;21.060;2022-10-13T00:52:53;14.13;;;10.50;;
43682;SDS011;29285;52.128;21.060;2022-10-13T00:57:58;18.80;;;11.38;;
43682;SDS011;29285;52.128;21.060;2022-10-13T01:03:03;19.23;;;11.35;;
43682;SDS011;29285;52.128;21.060;2022-10-13T01:08:04;22.00;;;11.88;;
43682;SDS011;29285;52.128;21.060;2022-10-13T01:24:25;24.95;;;11.63;;
43682;SDS011;29285;52.128;21.060;2022-10-13T01:34:58;19.73;;;12.55;;
43682;SDS011;29285;52.128;21.060;2022-10-13T01:40:17;20.57;;;11.83;;
43682;SDS011;29285;52.128;21.060;2022-10-13T01:45:20;17.48;;;11.65;;
43682;SDS011;29285;52.128;21.060;2022-10-13T01:50:25;19.48;;;12.15;;
43682;SDS011;29285;52.128;21.060;2022-10-13T01:55:28;23.70;;;15.23;;
43682;SDS011;29285;52.128;21.060;2022-10-13T02:00:31;21.42;;;13.45;;
43682;SDS011;29285;52.128;21.060;2022-10-13T02:10:55;20.52;;;12.93;;
43682;SDS011;29285;52.128;21.060;2022-10-13T02:16:16;23.00;;;15.15;;
43682;SDS011;29285;52.128;21.060;2022-10-13T02:21:19;22.40;;;13.48;;
43682;SDS011;29285;52.128;21.060;2022-10-13T02:26:21;19.75;;;12.75;;
43682;SDS011;29285;52.128;21.060;2022-10-13T02:31:23;19.17;;;12.65;;
43682;SDS011;29285;52.128;21.060;2022-10-13T02:36:24;26.77;;;15.00;;
43682;SDS011;29285;52.128;21.060;2022-10-13T02:41:26;25.08;;;14.35;;
43682;SDS011;29285;52.128;21.060;2022-10-13T02:46:27;19.62;;;14.23;;
43682;SDS011;29285;52.128;21.060;2022-10-13T02:51:28;24.85;;;15.75;;
43682;SDS011;29285;52.128;21.060;2022-10-13T02:56:30;20.57;;;14.15;;
43682;SDS011;29285;52.128;21.060;2022-10-13T03:01:31;23.70;;;16.00;;
43682;SDS011;29285;52.128;21.060;2022-10-13T03:06:33;22.62;;;14.55;;
43682;SDS011;29285;52.128;21.060;2022-10-13T03:11:34;23.45;;;13.98;;
43682;SDS011;29285;52.128;21.060;2022-10-13T03:16:36;27.13;;;16.07;;
43682;SDS011;29285;52.128;21.060;2022-10-13T03:21:37;25.40;;;15.70;;
43682;SDS011;29285;52.128;21.060;2022-10-13T03:26:39;24.23;;;16.30;;
43682;SDS011;29285;52.128;21.060;2022-10-13T03:31:40;23.65;;;15.85;;
43682;SDS011;29285;52.128;21.060;2022-10-13T03:36:42;23.73;;;14.30;;
43682;SDS011;29285;52.128;21.060;2022-10-13T03:41:44;25.72;;;15.75;;
43682;SDS011;29285;52.128;21.060;2022-10-13T03:46:45;22.85;;;15.43;;
43682;SDS011;29285;52.128;21.060;2022-10-13T03:51:46;23.35;;;17.00;;
43682;SDS011;29285;52.128;21.060;2022-10-13T03:56:48;24.07;;;16.02;;
43682;SDS011;29285;52.128;21.060;2022-10-13T04:01:49;23.15;;;15.35;;
43682;SDS011;29285;52.128;21.060;2022-10-13T04:06:50;23.67;;;16.75;;
43682;SDS011;29285;52.128;21.060;2022-10-13T04:11:52;20.50;;;16.07;;
43682;SDS011;29285;52.128;21.060;2022-10-13T04:16:53;21.35;;;16.15;;
43682;SDS011;29285;52.128;21.060;2022-10-13T04:21:55;20.48;;;15.80;;
43682;SDS011;29285;52.128;21.060;2022-10-13T04:26:56;24.67;;;16.32;;
43682;SDS011;29285;52.128;21.060;2022-10-13T04:31:58;25.25;;;15.30;;
43682;SDS011;29285;52.128;21.060;2022-10-13T04:37:02;20.32;;;15.23;;
43682;SDS011;29285;52.128;21.060;2022-10-13T04:42:03;22.32;;;15.65;;
43682;SDS011;29285;52.128;21.060;2022-10-13T04:47:05;25.52;;;15.95;;
43682;SDS011;29285;52.128;21.060;2022-10-13T04:52:07;20.48;;;14.70;;
43682;SDS011;29285;52.128;21.060;2022-10-13T04:57:08;22.07;;;15.25;;
43682;SDS011;29285;52.128;21.060;2022-10-13T05:02:10;21.97;;;16.48;;
43682;SDS011;29285;52.128;21.060;2022-10-13T05:07:11;21.00;;;15.10;;
43682;SDS011;29285;52.128;21.060;2022-10-13T05:12:12;20.12;;;15.45;;
43682;SDS011;29285;52.128;21.060;2022-10-13T05:17:15;23.07;;;15.85;;
43682;SDS011;29285;52.128;21.060;2022-10-13T05:22:16;19.42;;;15.18;;
43682;SDS011;29285;52.128;21.060;2022-10-13T05:27:18;22.27;;;15.88;;
43682;SDS011;29285;52.128;21.060;2022-10-13T05:32:20;24.95;;;15.00;;
43682;SDS011;29285;52.128;21.060;2022-10-13T05:37:21;21.33;;;14.30;;
43682;SDS011;29285;52.128;21.060;2022-10-13T05:42:23;21.40;;;14.33;;
43682;SDS011;29285;52.128;21.060;2022-10-13T05:47:24;21.33;;;14.73;;
43682;SDS011;29285;52.128;21.060;2022-10-13T05:52:27;23.30;;;15.48;;
43682;SDS011;29285;52.128;21.060;2022-10-13T05:57:34;23.02;;;15.80;;
43682;SDS011;29285;52.128;21.060;2022-10-13T06:02:57;22.10;;;14.35;;
43682;SDS011;29285;52.128;21.060;2022-10-13T06:08:05;21.68;;;14.03;;
43682;SDS011;29285;52.128;21.060;2022-10-13T06:13:07;20.47;;;14.70;;
43682;SDS011;29285;52.128;21.060;2022-10-13T06:18:09;21.80;;;13.90;;
43682;SDS011;29285;52.128;21.060;2022-10-13T06:23:11;18.98;;;13.53;;
43682;SDS011;29285;52.128;21.060;2022-10-13T06:28:13;21.95;;;13.78;;
43682;SDS011;29285;52.128;21.060;2022-10-13T06:33:15;21.97;;;13.88;;
43682;SDS011;29285;52.128;21.060;2022-10-13T06:38:17;17.80;;;11.70;;
43682;SDS011;29285;52.128;21.060;2022-10-13T06:43:19;21.62;;;11.55;;
43682;SDS011;29285;52.128;21.060;2022-10-13T06:48:21;21.42;;;12.85;;
43682;SDS011;29285;52.128;21.060;2022-10-13T06:53:22;17.75;;;11.78;;
43682;SDS011;29285;52.128;21.060;2022-10-13T06:58:24;18.40;;;11.70;;
43682;SDS011;29285;52.128;21.060;2022-10-13T07:03:26;17.52;;;10.90;;
43682;SDS011;29285;52.128;21.060;2022-10-13T07:08:27;15.65;;;11.38;;
43682;SDS011;29285;52.128;21.060;2022-10-13T07:13:29;17.35;;;11.73;;
43682;SDS011;29285;52.128;21.060;2022-10-13T07:18:31;15.30;;;10.90;;
43682;SDS011;29285;52.128;21.060;2022-10-13T07:23:33;22.22;;;12.73;;
43682;SDS011;29285;52.128;21.060;2022-10-13T07:28:35;16.82;;;10.43;;
43682;SDS011;29285;52.128;21.060;2022-10-13T07:33:37;22.55;;;14.28;;
43682;SDS011;29285;52.128;21.060;2022-10-13T07:38:41;24.90;;;13.50;;
43682;SDS011;29285;52.128;21.060;2022-10-13T07:43:44;20.92;;;12.30;;
43682;SDS011;29285;52.128;21.060;2022-10-13T07:48:45;22.02;;;13.60;;
43682;SDS011;29285;52.128;21.060;2022-10-13T07:53:47;16.65;;;11.83;;
43682;SDS011;29285;52.128;21.060;2022-10-13T07:58:49;16.30;;;11.35;;
43682;SDS011;29285;52.128;21.060;2022-10-13T08:03:53;19.80;;;12.75;;
43682;SDS011;29285;52.128;21.060;2022-10-13T08:08:56;18.70;;;11.85;;
43682;SDS011;29285;52.128;21.060;2022-10-13T08:13:59;22.15;;;10.78;;
43682;SDS011;29285;52.128;21.060;2022-10-13T08:19:02;17.80;;;11.40;;
43682;SDS011;29285;52.128;21.060;2022-10-13T08:24:04;20.12;;;11.20;;
43682;SDS011;29285;52.128;21.060;2022-10-13T08:29:12;17.40;;;10.90;;
43682;SDS011;29285;52.128;21.060;2022-10-13T08:34:14;14.87;;;10.93;;
43682;SDS011;29285;52.128;21.060;2022-10-13T08:39:15;16.75;;;10.72;;
43682;SDS011;29285;52.128;21.060;2022-10-13T08:49:40;15.68;;;10.63;;
43682;SDS011;29285;52.128;21.060;2022-10-13T08:54:43;16.60;;;10.43;;
43682;SDS011;29285;52.128;21.060;2022-10-13T08:59:45;14.80;;;8.03;;
43682;SDS011;29285;52.128;21.060;2022-10-13T09:04:48;15.80;;;9.67;;
43682;SDS011;29285;52.128;21.060;2022-10-13T09:14:56;15.43;;;9.98;;
43682;SDS011;29285;52.128;21.060;2022-10-13T09:20:23;23.18;;;9.93;;
43682;SDS011;29285;52.128;21.060;2022-10-13T09:25:27;14.13;;;7.47;;
43682;SDS011;29285;52.128;21.060;2022-10-13T09:30:35;13.53;;;8.13;;
43682;SDS011;29285;52.128;21.060;2022-10-13T09:35:48;10.25;;;5.12;;
43682;SDS011;29285;52.128;21.060;2022-10-13T09:41:11;10.05;;;5.08;;
43682;SDS011;29285;52.128;21.060;2022-10-13T09:51:37;10.25;;;4.30;;
43682;SDS011;29285;52.128;21.060;2022-10-13T09:56:48;4.65;;;2.70;;
43682;SDS011;29285;52.128;21.060;2022-10-13T10:01:58;10.23;;;3.53;;
43682;SDS011;29285;52.128;21.060;2022-10-13T10:07:20;6.62;;;2.72;;
43682;SDS011;29285;52.128;21.060;2022-10-13T10:12:26;7.33;;;3.55;;
43682;SDS011;29285;52.128;21.060;2022-10-13T10:17:41;7.95;;;4.15;;
43682;SDS011;29285;52.128;21.060;2022-10-13T10:39:15;6.00;;;2.58;;
43682;SDS011;29285;52.128;21.060;2022-10-13T10:44:35;6.90;;;2.75;;
43682;SDS011;29285;52.128;21.060;2022-10-13T10:49:39;4.75;;;2.05;;
43682;SDS011;29285;52.128;21.060;2022-10-13T10:54:53;7.25;;;2.90;;
43682;SDS011;29285;52.128;21.060;2022-10-13T11:00:05;6.53;;;2.10;;
43682;SDS011;29285;52.128;21.060;2022-10-13T11:05:08;6.58;;;2.52;;
43682;SDS011;29285;52.128;21.060;2022-10-13T11:15:24;7.20;;;2.72;;
43682;SDS011;29285;52.128;21.060;2022-10-13T11:25:45;4.53;;;2.42;;
43682;SDS011;29285;52.128;21.060;2022-10-13T11:36:04;5.20;;;3.30;;
43682;SDS011;29285;52.128;21.060;2022-10-13T11:41:31;8.87;;;3.67;;
43682;SDS011;29285;52.128;21.060;2022-10-13T11:46:45;6.70;;;2.45;;
43682;SDS011;29285;52.128;21.060;2022-10-13T11:52:12;5.33;;;3.10;;
43682;SDS011;29285;52.128;21.060;2022-10-13T11:57:26;8.15;;;3.20;;
43682;SDS011;29285;52.128;21.060;2022-10-13T12:02:27;5.35;;;2.52;;
43682;SDS011;29285;52.128;21.060;2022-10-13T12:07:33;7.20;;;2.75;;
43682;SDS011;29285;52.128;21.060;2022-10-13T12:12:35;7.72;;;3.15;;
43682;SDS011;29285;52.128;21.060;2022-10-13T12:17:37;7.67;;;3.20;;
43682;SDS011;29285;52.128;21.060;2022-10-13T12:22:45;8.48;;;3.37;;
43682;SDS011;29285;52.128;21.060;2022-10-13T12:27:54;7.75;;;3.12;;
43682;SDS011;29285;52.128;21.060;2022-10-13T12:32:56;7.15;;;2.40;;
43682;SDS011;29285;52.128;21.060;2022-10-13T12:38:00;6.70;;;3.50;;
43682;SDS011;29285;52.128;21.060;2022-10-13T12:43:05;8.68;;;3.80;;
43682;SDS011;29285;52.128;21.060;2022-10-13T12:48:25;7.72;;;3.90;;
43682;SDS011;29285;52.128;21.060;2022-10-13T12:53:30;8.03;;;3.95;;
43682;SDS011;29285;52.128;21.060;2022-10-13T12:58:33;6.95;;;3.55;;
43682;SDS011;29285;52.128;21.060;2022-10-13T13:03:36;6.60;;;3.25;;
43682;SDS011;29285;52.128;21.060;2022-10-13T13:08:39;8.40;;;3.40;;
43682;SDS011;29285;52.128;21.060;2022-10-13T13:13:43;10.03;;;5.28;;
43682;SDS011;29285;52.128;21.060;2022-10-13T13:18:45;7.40;;;3.70;;
43682;SDS011;29285;52.128;21.060;2022-10-13T13:23:48;7.15;;;3.33;;
43682;SDS011;29285;52.128;21.060;2022-10-13T13:28:50;13.18;;;4.00;;
43682;SDS011;29285;52.128;21.060;2022-10-13T13:33:54;5.90;;;3.70;;
43682;SDS011;29285;52.128;21.060;2022-10-13T13:38:56;7.60;;;4.67;;
43682;SDS011;29285;52.128;21.060;2022-10-13T13:43:57;7.97;;;3.85;;
43682;SDS011;29285;52.128;21.060;2022-10-13T13:48:58;12.33;;;6.20;;
43682;SDS011;29285;52.128;21.060;2022-10-13T13:54:00;10.00;;;5.75;;
43682;SDS011;29285;52.128;21.060;2022-10-13T13:59:01;6.87;;;3.52;;
43682;SDS011;29285;52.128;21.060;2022-10-13T14:04:02;7.90;;;4.20;;
43682;SDS011;29285;52.128;21.060;2022-10-13T14:09:04;6.60;;;4.15;;
43682;SDS011;29285;52.128;21.060;2022-10-13T14:14:06;5.97;;;4.17;;
43682;SDS011;29285;52.128;21.060;2022-10-13T14:19:07;8.98;;;4.15;;
43682;SDS011;29285;52.128;21.060;2022-10-13T14:24:10;12.33;;;4.75;;
43682;SDS011;29285;52.128;21.060;2022-10-13T14:29:11;6.22;;;3.77;;
43682;SDS011;29285;52.128;21.060;2022-10-13T14:34:13;6.72;;;3.75;;
43682;SDS011;29285;52.128;21.060;2022-10-13T14:39:15;9.10;;;6.58;;
43682;SDS011;29285;52.128;21.060;2022-10-13T14:44:16;10.10;;;5.53;;
43682;SDS011;29285;52.128;21.060;2022-10-13T14:49:18;8.48;;;4.30;;
43682;SDS011;29285;52.128;21.060;2022-10-13T14:54:19;8.90;;;4.22;;
43682;SDS011;29285;52.128;21.060;2022-10-13T14:59:21;7.22;;;4.03;;
43682;SDS011;29285;52.128;21.060;2022-10-13T15:04:22;12.85;;;4.20;;
43682;SDS011;29285;52.128;21.060;2022-10-13T15:09:23;18.55;;;4.33;;
43682;SDS011;29285;52.128;21.060;2022-10-13T15:14:25;7.20;;;3.65;;
43682;SDS011;29285;52.128;21.060;2022-10-13T15:19:26;9.98;;;4.00;;
43682;SDS011;29285;52.128;21.060;2022-10-13T15:24:28;7.78;;;3.45;;
43682;SDS011;29285;52.128;21.060;2022-10-13T15:29:29;6.47;;;3.72;;
43682;SDS011;29285;52.128;21.060;2022-10-13T15:34:31;6.28;;;3.70;;
43682;SDS011;29285;52.128;21.060;2022-10-13T15:39:32;5.00;;;3.25;;
43682;SDS011;29285;52.128;21.060;2022-10-13T15:44:34;8.40;;;3.83;;
43682;SDS011;29285;52.128;21.060;2022-10-13T15:49:36;6.85;;;4.28;;
43682;SDS011;29285;52.128;21.060;2022-10-13T15:54:37;8.00;;;4.42;;
43682;SDS011;29285;52.128;21.060;2022-10-13T15:59:40;8.10;;;3.67;;
43682;SDS011;29285;52.128;21.060;2022-10-13T16:04:41;7.37;;;4.35;;
43682;SDS011;29285;52.128;21.060;2022-10-13T16:09:43;15.63;;;11.48;;
43682;SDS011;29285;52.128;21.060;2022-10-13T16:14:44;10.85;;;5.70;;
43682;SDS011;29285;52.128;21.060;2022-10-13T16:19:46;10.80;;;4.03;;
43682;SDS011;29285;52.128;21.060;2022-10-13T16:24:48;10.28;;;4.60;;
43682;SDS011;29285;52.128;21.060;2022-10-13T16:29:49;9.70;;;4.20;;
43682;SDS011;29285;52.128;21.060;2022-10-13T16:34:51;8.53;;;4.60;;
43682;SDS011;29285;52.128;21.060;2022-10-13T16:39:52;7.25;;;3.80;;
43682;SDS011;29285;52.128;21.060;2022-10-13T16:44:53;10.10;;;4.47;;
43682;SDS011;29285;52.128;21.060;2022-10-13T16:49:55;10.23;;;4.50;;
43682;SDS011;29285;52.128;21.060;2022-10-13T16:54:56;11.50;;;5.97;;
43682;SDS011;29285;52.128;21.060;2022-10-13T16:59:58;7.17;;;4.62;;
43682;SDS011;29285;52.128;21.060;2022-10-13T17:04:59;8.70;;;4.67;;
43682;SDS011;29285;52.128;21.060;2022-10-13T17:10:01;12.10;;;5.28;;
43682;SDS011;29285;52.128;21.060;2022-10-13T17:15:05;10.50;;;6.17;;
43682;SDS011;29285;52.128;21.060;2022-10-13T17:20:07;10.10;;;5.70;;
43682;SDS011;29285;52.128;21.060;2022-10-13T17:25:09;11.60;;;6.53;;
43682;SDS011;29285;52.128;21.060;2022-10-13T17:30:10;14.90;;;7.30;;
43682;SDS011;29285;52.128;21.060;2022-10-13T17:35:11;17.02;;;7.37;;
43682;SDS011;29285;52.128;21.060;2022-10-13T17:40:15;13.10;;;7.93;;
43682;SDS011;29285;52.128;21.060;2022-10-13T17:45:16;20.50;;;9.20;;
43682;SDS011;29285;52.128;21.060;2022-10-13T17:50:18;14.50;;;7.83;;
43682;SDS011;29285;52.128;21.060;2022-10-13T17:55:19;13.95;;;7.90;;
43682;SDS011;29285;52.128;21.060;2022-10-13T18:00:21;14.55;;;8.05;;
43682;SDS011;29285;52.128;21.060;2022-10-13T18:05:22;17.17;;;9.05;;
43682;SDS011;29285;52.128;21.060;2022-10-13T18:10:24;13.70;;;7.87;;
43682;SDS011;29285;52.128;21.060;2022-10-13T18:15:25;17.15;;;8.60;;
43682;SDS011;29285;52.128;21.060;2022-10-13T18:20:27;15.93;;;7.65;;
43682;SDS011;29285;52.128;21.060;2022-10-13T18:25:28;16.00;;;9.73;;
43682;SDS011;29285;52.128;21.060;2022-10-13T18:30:35;14.90;;;8.98;;
43682;SDS011;29285;52.128;21.060;2022-10-13T18:35:37;15.38;;;8.18;;
43682;SDS011;29285;52.128;21.060;2022-10-13T18:40:38;15.48;;;9.83;;
43682;SDS011;29285;52.128;21.060;2022-10-13T18:45:39;15.20;;;9.63;;
43682;SDS011;29285;52.128;21.060;2022-10-13T18:50:40;16.30;;;8.83;;
43682;SDS011;29285;52.128;21.060;2022-10-13T18:55:42;16.17;;;9.68;;
43682;SDS011;29285;52.128;21.060;2022-10-13T19:00:43;19.00;;;10.03;;
43682;SDS011;29285;52.128;21.060;2022-10-13T19:05:45;20.15;;;10.03;;
43682;SDS011;29285;52.128;21.060;2022-10-13T19:10:46;18.80;;;10.38;;
43682;SDS011;29285;52.128;21.060;2022-10-13T19:15:47;25.05;;;10.70;;
43682;SDS011;29285;52.128;21.060;2022-10-13T19:20:49;19.15;;;11.50;;
43682;SDS011;29285;52.128;21.060;2022-10-13T19:25:51;16.60;;;9.73;;
43682;SDS011;29285;52.128;21.060;2022-10-13T19:30:53;20.20;;;10.53;;
43682;SDS011;29285;52.128;21.060;2022-10-13T19:35:54;19.42;;;9.38;;
43682;SDS011;29285;52.128;21.060;2022-10-13T19:40:59;16.87;;;10.03;;
43682;SDS011;29285;52.128;21.060;2022-10-13T19:46:02;19.23;;;11.48;;
43682;SDS011;29285;52.128;21.060;2022-10-13T19:51:06;17.55;;;10.03;;
43682;SDS011;29285;52.128;21.060;2022-10-13T19:56:17;19.97;;;11.60;;
43682;SDS011;29285;52.128;21.060;2022-10-13T20:01:21;21.23;;;9.65;;
43682;SDS011;29285;52.128;21.060;2022-10-13T20:06:23;19.67;;;10.70;;
43682;SDS011;29285;52.128;21.060;2022-10-13T20:11:25;18.15;;;10.60;;
43682;SDS011;29285;52.128;21.060;2022-10-13T20:16:26;17.98;;;10.88;;
43682;SDS011;29285;52.128;21.060;2022-10-13T20:21:28;18.07;;;11.00;;
43682;SDS011;29285;52.128;21.060;2022-10-13T20:26:30;19.90;;;11.68;;
43682;SDS011;29285;52.128;21.060;2022-10-13T20:31:32;18.05;;;11.40;;
43682;SDS011;29285;52.128;21.060;2022-10-13T20:36:34;19.70;;;11.12;;
43682;SDS011;29285;52.128;21.060;2022-10-13T20:41:35;21.35;;;11.73;;
43682;SDS011;29285;52.128;21.060;2022-10-13T20:46:36;15.63;;;10.58;;
43682;SDS011;29285;52.128;21.060;2022-10-13T20:51:38;16.95;;;11.43;;
43682;SDS011;29285;52.128;21.060;2022-10-13T20:56:41;18.00;;;11.60;;
43682;SDS011;29285;52.128;21.060;2022-10-13T21:01:44;21.23;;;11.33;;
43682;SDS011;29285;52.128;21.060;2022-10-13T21:06:45;16.77;;;10.95;;
43682;SDS011;29285;52.128;21.060;2022-10-13T21:11:47;17.37;;;10.53;;
43682;SDS011;29285;52.128;21.060;2022-10-13T21:16:48;21.42;;;11.28;;
43682;SDS011;29285;52.128;21.060;2022-10-13T21:21:49;20.85;;;11.93;;
43682;SDS011;29285;52.128;21.060;2022-10-13T21:26:51;22.73;;;12.03;;
43682;SDS011;29285;52.128;21.060;2022-10-13T21:31:53;26.82;;;12.63;;
43682;SDS011;29285;52.128;21.060;2022-10-13T21:36:54;21.80;;;12.68;;
43682;SDS011;29285;52.128;21.060;2022-10-13T21:41:55;25.25;;;11.33;;
43682;SDS011;29285;52.128;21.060;2022-10-13T21:46:57;21.50;;;12.95;;
43682;SDS011;29285;52.128;21.060;2022-10-13T21:51:59;22.07;;;12.37;;
43682;SDS011;29285;52.128;21.060;2022-10-13T21:57:00;23.22;;;12.68;;
43682;SDS011;29285;52.128;21.060;2022-10-13T22:02:02;20.68;;;13.00;;
43682;SDS011;29285;52.128;21.060;2022-10-13T22:07:03;20.57;;;12.35;;
43682;SDS011;29285;52.128;21.060;2022-10-13T22:12:05;22.00;;;12.65;;
43682;SDS011;29285;52.128;21.060;2022-10-13T22:17:09;23.95;;;13.65;;
43682;SDS011;29285;52.128;21.060;2022-10-13T22:22:10;21.25;;;12.35;;
43682;SDS011;29285;52.128;21.060;2022-10-13T22:27:11;26.35;;;13.68;;
43682;SDS011;29285;52.128;21.060;2022-10-13T22:32:13;24.82;;;14.18;;
43682;SDS011;29285;52.128;21.060;2022-10-13T22:37:14;27.45;;;14.03;;
43682;SDS011;29285;52.128;21.060;2022-10-13T22:42:15;19.50;;;12.35;;
43682;SDS011;29285;52.128;21.060;2022-10-13T22:47:17;19.95;;;13.10;;
43682;SDS011;29285;52.128;21.060;2022-10-13T22:52:18;23.67;;;13.88;;
43682;SDS011;29285;52.128;21.060;2022-10-13T22:57:19;27.32;;;15.25;;
43682;SDS011;29285;52.128;21.060;2022-10-13T23:02:21;20.05;;;12.23;;
43682;SDS011;29285;52.128;21.060;2022-10-13T23:07:22;24.92;;;14.93;;
43682;SDS011;29285;52.128;21.060;2022-10-13T23:12:23;25.50;;;14.23;;
43682;SDS011;29285;52.128;21.060;2022-10-13T23:17:25;21.50;;;12.73;;
43682;SDS011;29285;52.128;21.060;2022-10-13T23:22:26;21.62;;;12.70;;
43682;SDS011;29285;52.128;21.060;2022-10-13T23:27:28;23.77;;;13.53;;
43682;SDS011;29285;52.128;21.060;2022-10-13T23:32:29;19.00;;;12.25;;
43682;SDS011;29285;52.128;21.060;2022-10-13T23:37:31;23.67;;;13.55;;
43682;SDS011;29285;52.128;21.060;2022-10-13T23:42:32;22.30;;;13.65;;
43682;SDS011;29285;52.128;21.060;2022-10-13T23:47:34;21.87;;;12.10;;
43682;SDS011;29285;52.128;21.060;2022-10-13T23:52:36;19.87;;;13.70;;
43682;SDS011;29285;52.128;21.060;2022-10-13T23:57:38;23.57;;;13.53;;
